KSTP/STP METAR and TAF weather

Enter ICAO airport designator
Station Type Date Time Source
KSTP METAR 2020/07/11 23:15 UTC NOAA

KSTP 112315Z AUTO 36006KT 10SM VCTS CLR 27/15 A2986 RMK AO2 LTG DSNT W T02670150


Station Type Date Time Source
KSTP Decoded METAR 2020/07/11 23:15 UTC NOAA

DOWNTOWN HOLMAN FIELD, MN, United States (KSTP) 44-56N 093-03W 219M
Jul 11, 2020 - 07:15 PM EDT / 2020.07.11 2315 UTC
Wind: from the N (360 degrees) at 7 MPH (6 KT):0
Visibility: 10 mile(s):0
Sky conditions: clear
Weather: thunder in the vicinity; Lightning observed
Temperature: 80.1 F (26.7 C)
Dew Point: 59.0 F (15.0 C)
Relative Humidity: 48%
Pressure (altimeter): 29.86 in. Hg (1011 hPa)
ob: KSTP 112315Z AUTO 36006KT 10SM VCTS CLR 27/15 A2986 RMK AO2 LTG DSNT W T02670150
cycle: 23

Station Type Date Time Source
KSTP TAF 2018/02/05 20:57 UTC NOAA

TAF
AMD KSTP 051957Z 0520/0618 25007KT P6SM VCSH BKN020 OVC050
TEMPO 0520/0522 SCT020
FM052200 26006KT P6SM FEW020 BKN110
FM060100 31006KT P6SM FEW100
AMD NOT SKED

Example: see airport list